createdAt,value
2019-05-16T00:01:23.833Z,78.13
2019-05-16T00:03:50.929Z,78.24
2019-05-16T00:06:18.052Z,77.79
2019-05-16T00:08:45.162Z,77.91
2019-05-16T00:11:12.207Z,77.64
2019-05-16T00:13:39.288Z,77.68
2019-05-16T00:16:07.984Z,77.81
2019-05-16T00:18:35.122Z,77.71
2019-05-16T00:21:02.176Z,78.14
2019-05-16T00:23:29.299Z,78.04
2019-05-16T00:25:58.440Z,78.01
2019-05-16T00:28:25.332Z,78.11
2019-05-16T00:30:52.426Z,78.31
2019-05-16T00:33:19.514Z,78.31
2019-05-16T00:35:48.149Z,78.17
2019-05-16T00:38:15.533Z,78.19
2019-05-16T00:40:42.661Z,77.98
2019-05-16T00:43:09.728Z,78.10
2019-05-16T00:45:38.578Z,78.08
2019-05-16T00:48:05.796Z,78.17
2019-05-16T00:50:32.866Z,78.35
2019-05-16T00:52:59.909Z,78.50
2019-05-16T00:55:28.402Z,78.60
2019-05-16T00:57:58.190Z,78.43
2019-05-16T01:00:44.893Z,78.49
2019-05-16T01:03:12.005Z,78.57
2019-05-16T01:05:39.397Z,78.48
2019-05-16T01:08:07.899Z,78.41
2019-05-16T01:10:35.036Z,78.26
2019-05-16T01:13:02.088Z,78.40
2019-05-16T01:15:29.164Z,78.41
2019-05-16T01:17:58.720Z,78.41
2019-05-16T01:20:25.210Z,78.30
2019-05-16T01:22:52.278Z,78.39
2019-05-16T01:25:19.689Z,78.45
2019-05-16T01:27:47.685Z,78.48
2019-05-16T01:30:14.992Z,78.46
2019-05-16T01:32:42.047Z,78.57
2019-05-16T01:35:09.149Z,78.63
2019-05-16T01:37:38.376Z,78.63
2019-05-16T01:40:11.298Z,78.60
2019-05-16T01:42:38.792Z,78.85
2019-05-16T01:45:08.103Z,78.83
2019-05-16T01:47:34.887Z,78.74
2019-05-16T01:50:02.201Z,78.80
2019-05-16T01:52:29.278Z,78.78
2019-05-16T01:54:58.552Z,78.75
2019-05-16T01:57:25.336Z,78.63
2019-05-16T01:59:52.415Z,78.47
2019-05-16T02:02:19.494Z,78.33
2019-05-16T02:04:48.539Z,78.23
2019-05-16T02:07:15.534Z,78.32
2019-05-16T02:09:42.591Z,78.44
2019-05-16T02:12:10.783Z,78.51
2019-05-16T02:14:38.749Z,78.47
2019-05-16T02:17:05.918Z,78.41
2019-05-16T02:19:33.002Z,78.49
2019-05-16T02:22:00.076Z,78.59
2019-05-16T02:24:28.489Z,78.64
2019-05-16T02:26:55.602Z,78.72
2019-05-16T02:29:22.664Z,78.75
2019-05-16T02:31:51.330Z,78.78
2019-05-16T02:34:21.478Z,78.77
2019-05-16T02:37:08.278Z,78.68
2019-05-16T02:39:16.752Z,78.74
2019-05-16T02:41:46.130Z,78.70
2019-05-16T02:44:12.798Z,78.72
2019-05-16T02:46:41.865Z,78.94
2019-05-16T02:49:11.540Z,79.03
2019-05-16T02:51:40.608Z,79.29
2019-05-16T02:54:06.975Z,79.36
2019-05-16T02:56:34.058Z,79.35
2019-05-16T02:59:01.828Z,79.28
2019-05-16T03:01:31.709Z,79.17
2019-05-16T03:04:01.455Z,79.01
2019-05-16T03:06:27.344Z,79.00
2019-05-16T03:08:54.538Z,78.79
2019-05-16T03:11:22.015Z,78.94
2019-05-16T03:13:51.334Z,79.00
2019-05-16T03:16:22.224Z,78.91
2019-05-16T03:18:51.425Z,79.17
2019-05-16T03:21:17.744Z,79.19
2019-05-16T03:23:44.796Z,79.09
2019-05-16T03:26:12.077Z,79.16
2019-05-16T03:28:41.276Z,79.12
2019-05-16T03:31:14.152Z,79.05
2019-05-16T03:33:43.561Z,79.05
2019-05-16T03:36:06.175Z,79.09
2019-05-16T03:38:33.239Z,79.21
2019-05-16T03:41:01.123Z,79.26
2019-05-16T03:43:30.927Z,79.27
2019-05-16T03:45:57.194Z,79.20
2019-05-16T03:48:24.264Z,79.24
2019-05-16T03:50:51.294Z,79.22
2019-05-16T03:53:21.205Z,79.40
2019-05-16T03:55:47.339Z,79.46
2019-05-16T03:58:14.399Z,79.33
2019-05-16T04:00:52.345Z,79.33
2019-05-16T04:03:20.902Z,79.40
2019-05-16T04:05:46.766Z,79.35
2019-05-16T04:08:19.635Z,79.38
2019-05-16T04:10:42.829Z,79.26
2019-05-16T04:13:11.501Z,79.29
2019-05-16T04:15:40.824Z,79.12
2019-05-16T04:18:10.932Z,79.17
2019-05-16T04:20:36.924Z,78.96
2019-05-16T04:23:03.967Z,78.89
2019-05-16T04:25:31.211Z,78.68
2019-05-16T04:28:00.891Z,78.89
2019-05-16T04:30:31.024Z,78.83
2019-05-16T04:32:56.251Z,79.11
2019-05-16T04:35:23.356Z,79.20
2019-05-16T04:37:51.255Z,78.90
2019-05-16T04:40:21.641Z,78.90
2019-05-16T04:42:47.544Z,78.71
2019-05-16T04:45:14.647Z,78.68
2019-05-16T04:47:41.746Z,78.67
2019-05-16T04:50:11.531Z,78.40
2019-05-16T04:52:41.367Z,78.31
2019-05-16T04:55:12.212Z,78.20
2019-05-16T04:57:42.226Z,78.08
2019-05-16T05:00:11.172Z,77.98
2019-05-16T05:02:41.224Z,77.79
2019-05-16T05:05:06.682Z,77.86
2019-05-16T05:07:33.751Z,77.51
2019-05-16T05:10:01.016Z,77.42
2019-05-16T05:12:31.169Z,77.23
2019-05-16T05:14:57.008Z,76.88
2019-05-16T05:17:24.115Z,76.66
2019-05-16T05:19:51.187Z,76.38
2019-05-16T05:22:19.899Z,76.35
2019-05-16T05:24:47.032Z,77.55
2019-05-16T05:27:14.147Z,77.42
2019-05-16T05:29:41.236Z,75.85
2019-05-16T05:32:14.016Z,75.09
2019-05-16T05:34:39.695Z,74.80
2019-05-16T05:37:06.302Z,76.31
2019-05-16T05:39:33.376Z,77.66
2019-05-16T05:42:00.444Z,76.00
2019-05-16T05:44:27.541Z,74.20
2019-05-16T05:46:54.628Z,73.38
2019-05-16T05:49:21.707Z,72.07
2019-05-16T05:51:50.033Z,70.75
2019-05-16T05:54:17.330Z,69.75
2019-05-16T05:56:44.401Z,71.04
2019-05-16T05:59:11.608Z,69.35
2019-05-16T06:01:40.609Z,68.60
2019-05-16T06:04:07.727Z,69.86
2019-05-16T06:06:34.816Z,69.37
2019-05-16T06:09:02.010Z,67.69
2019-05-16T06:11:30.761Z,67.50
2019-05-16T06:14:00.322Z,67.04
2019-05-16T06:16:26.885Z,66.41
2019-05-16T06:18:56.668Z,65.82
2019-05-16T06:21:22.942Z,66.34
2019-05-16T06:23:50.917Z,66.51
2019-05-16T06:26:20.378Z,66.42
2019-05-16T06:28:47.233Z,64.35
2019-05-16T06:31:14.629Z,64.76
2019-05-16T06:33:41.779Z,64.66
2019-05-16T06:36:11.041Z,65.10
2019-05-16T06:38:40.386Z,64.60
2019-05-16T06:41:06.831Z,65.31
2019-05-16T06:43:33.905Z,65.67
2019-05-16T06:46:01.002Z,65.76
2019-05-16T06:48:30.260Z,67.01
2019-05-16T06:50:57.119Z,68.17
2019-05-16T06:53:24.198Z,68.33
2019-05-16T06:55:51.292Z,67.17
2019-05-16T06:58:21.870Z,67.25
2019-05-16T07:00:51.665Z,67.28
2019-05-16T07:03:16.432Z,67.32
2019-05-16T07:05:43.510Z,67.94
2019-05-16T07:08:10.588Z,67.86
2019-05-16T07:10:39.664Z,68.37
2019-05-16T07:13:06.604Z,67.92
2019-05-16T07:15:33.685Z,67.77
2019-05-16T07:18:00.756Z,67.12
2019-05-16T07:20:30.054Z,67.02
2019-05-16T07:22:56.940Z,67.16
2019-05-16T07:25:24.017Z,67.03
2019-05-16T07:27:51.330Z,66.46
2019-05-16T07:30:19.928Z,66.37
2019-05-16T07:32:47.086Z,66.52
2019-05-16T07:35:14.178Z,66.26
2019-05-16T07:37:41.252Z,65.50
2019-05-16T07:40:19.102Z,64.93
2019-05-16T07:42:40.128Z,64.44
2019-05-16T07:45:06.653Z,63.62
2019-05-16T07:47:33.734Z,62.92
2019-05-16T07:50:01.233Z,61.92
2019-05-16T07:52:35.493Z,61.62
2019-05-16T07:54:59.936Z,61.59
2019-05-16T07:57:26.300Z,61.79
2019-05-16T07:59:53.364Z,61.98
2019-05-16T08:02:21.104Z,62.11
2019-05-16T08:04:50.216Z,62.40
2019-05-16T08:07:19.885Z,62.31
2019-05-16T08:09:46.337Z,62.32
2019-05-16T08:12:13.450Z,61.28
2019-05-16T08:14:41.049Z,61.33
2019-05-16T08:17:10.433Z,62.70
2019-05-16T08:19:39.349Z,61.47
2019-05-16T08:22:06.189Z,61.97
2019-05-16T08:24:36.082Z,61.57
2019-05-16T08:27:02.284Z,61.52
2019-05-16T08:29:31.653Z,62.43
2019-05-16T08:32:01.859Z,62.00
2019-05-16T08:34:27.384Z,62.35
2019-05-16T08:36:54.420Z,62.16
2019-05-16T08:39:21.653Z,61.67
2019-05-16T08:41:52.063Z,61.71
2019-05-16T08:44:21.325Z,61.46
2019-05-16T08:46:53.275Z,61.12
2019-05-16T08:49:15.767Z,60.96
2019-05-16T08:51:43.006Z,60.93
2019-05-16T08:54:14.958Z,61.61
2019-05-16T08:56:44.156Z,61.07
2019-05-16T08:59:13.247Z,60.53
2019-05-16T09:01:46.744Z,59.83
2019-05-16T09:04:06.288Z,58.92
2019-05-16T09:06:33.408Z,59.36
2019-05-16T09:09:20.448Z,59.19
2019-05-16T09:11:40.671Z,58.67
2019-05-16T09:13:58.548Z,57.15
2019-05-16T09:16:27.493Z,56.03
2019-05-16T09:19:20.661Z,55.98
2019-05-16T09:21:47.789Z,56.35
2019-05-16T09:24:34.314Z,56.87
2019-05-16T09:27:13.761Z,56.05
2019-05-16T09:29:40.815Z,56.05
2019-05-16T09:32:16.654Z,55.44
2019-05-16T09:34:42.951Z,55.74
2019-05-16T09:37:10.131Z,55.66
2019-05-16T09:39:37.329Z,54.66
2019-05-16T09:42:04.440Z,53.74
2019-05-16T09:44:31.515Z,53.42
2019-05-16T09:46:58.542Z,52.51
2019-05-16T09:49:26.204Z,51.78
2019-05-16T09:52:00.602Z,51.59
2019-05-16T09:54:27.678Z,51.71
2019-05-16T09:56:57.000Z,49.97
2019-05-16T09:59:30.056Z,49.82
2019-05-16T10:01:57.428Z,51.00
2019-05-16T10:04:26.704Z,52.23
2019-05-16T10:06:59.632Z,52.82
2019-05-16T10:09:38.523Z,54.23
2019-05-16T10:12:11.360Z,54.05
2019-05-16T10:14:42.026Z,54.06
2019-05-16T10:17:09.102Z,53.59
2019-05-16T10:19:36.770Z,53.80
2019-05-16T10:22:11.500Z,53.92
2019-05-16T10:24:38.592Z,54.46
2019-05-16T10:27:06.610Z,54.14
2019-05-16T10:29:41.123Z,53.22
2019-05-16T10:32:08.281Z,52.77
2019-05-16T10:34:37.118Z,52.89
2019-05-16T10:37:10.504Z,53.42
2019-05-16T10:39:37.626Z,53.64
2019-05-16T10:42:06.806Z,54.96
2019-05-16T10:44:39.901Z,55.32
2019-05-16T10:47:07.570Z,53.08
2019-05-16T10:50:05.421Z,55.14
2019-05-16T10:52:32.488Z,55.14
2019-05-16T10:55:02.529Z,55.72
2019-05-16T10:57:37.602Z,55.33
2019-05-16T11:03:12.287Z,55.92
2019-05-16T11:06:03.005Z,57.28
2019-05-16T11:08:21.040Z,57.28
2019-05-16T11:11:07.611Z,57.67
2019-05-16T11:13:36.934Z,57.99
2019-05-16T11:16:29.721Z,57.88
2019-05-16T11:19:13.800Z,58.84
2019-05-16T11:21:51.845Z,59.13
2019-05-16T11:24:18.971Z,59.13
2019-05-16T11:26:47.397Z,59.10
2019-05-16T11:29:21.112Z,58.81
2019-05-16T11:31:48.430Z,58.43
2019-05-16T11:34:27.992Z,58.80
2019-05-16T11:36:56.976Z,58.80
2019-05-16T11:39:30.107Z,57.75
2019-05-16T11:41:57.236Z,57.77
2019-05-16T11:44:28.196Z,57.92
2019-05-16T11:46:59.230Z,57.98
2019-05-16T11:49:27.548Z,58.21
2019-05-16T11:52:13.490Z,57.87
2019-05-16T11:54:40.578Z,57.87
2019-05-16T11:57:27.124Z,57.37
2019-05-16T12:00:08.013Z,57.32
2019-05-16T12:02:37.697Z,57.32
2019-05-16T12:05:10.900Z,57.44
2019-05-16T12:07:44.174Z,57.37
2019-05-16T12:10:17.959Z,56.79
2019-05-16T12:12:45.064Z,56.79
2019-05-16T12:18:11.466Z,56.33
2019-05-16T12:20:51.189Z,56.42
2019-05-16T12:23:18.289Z,56.42
2019-05-16T12:25:47.486Z,55.79
2019-05-16T12:28:20.403Z,56.03
2019-05-16T12:30:47.476Z,56.57
2019-05-16T12:33:14.554Z,56.35
2019-05-16T12:35:41.643Z,55.91
2019-05-16T12:38:08.738Z,54.91
2019-05-16T12:40:37.672Z,55.47
2019-05-16T12:43:11.355Z,55.62
2019-05-16T12:45:38.954Z,55.85
2019-05-16T12:48:20.405Z,54.88
2019-05-16T12:50:52.624Z,55.02
2019-05-16T12:53:23.519Z,54.52
2019-05-16T12:55:56.660Z,54.32
2019-05-16T12:58:37.710Z,53.71
2019-05-16T13:01:07.440Z,54.12
2019-05-16T13:03:40.061Z,54.92
2019-05-16T13:06:07.117Z,55.86
2019-05-16T13:08:34.265Z,55.40
2019-05-16T13:11:01.348Z,54.13
2019-05-16T13:13:28.485Z,54.99
2019-05-16T13:15:55.592Z,55.69
2019-05-16T13:18:22.691Z,55.38
2019-05-16T13:20:49.775Z,55.51
2019-05-16T13:23:18.322Z,56.17
2019-05-16T13:25:52.016Z,56.17
2019-05-16T13:28:19.200Z,56.10
2019-05-16T13:30:47.113Z,56.13
2019-05-16T13:33:21.455Z,56.00
2019-05-16T13:35:48.550Z,56.14
2019-05-16T13:38:17.314Z,56.13
2019-05-16T13:40:54.376Z,56.27
2019-05-16T13:43:21.449Z,57.04
2019-05-16T13:45:48.581Z,57.02
2019-05-16T13:48:17.201Z,57.02
2019-05-16T13:51:08.337Z,57.34
2019-05-16T13:53:49.900Z,56.24
2019-05-16T13:56:29.225Z,56.90
2019-05-16T13:58:57.047Z,56.90
2019-05-16T14:01:50.889Z,56.18
2019-05-16T14:04:30.392Z,56.47
2019-05-16T14:06:58.934Z,56.47
2019-05-16T14:09:52.150Z,56.07
2019-05-16T14:12:19.329Z,56.07
2019-05-16T14:15:08.029Z,56.37
2019-05-16T14:17:41.177Z,56.37
2019-05-16T14:20:27.773Z,56.08
2019-05-16T14:22:57.307Z,56.08
2019-05-16T14:25:30.162Z,56.17
2019-05-16T14:27:57.258Z,56.58
2019-05-16T14:30:24.350Z,56.35
2019-05-16T14:33:13.701Z,55.28
2019-05-16T14:35:47.188Z,55.28
2019-05-16T14:38:21.546Z,55.56
2019-05-16T14:40:50.355Z,54.58
2019-05-16T14:43:23.728Z,53.51
2019-05-16T14:45:50.786Z,50.22
2019-05-16T14:48:18.525Z,50.50
2019-05-16T14:50:47.112Z,49.09
2019-05-16T14:53:14.348Z,49.11
2019-05-16T14:55:41.652Z,50.11
2019-05-16T14:58:08.798Z,51.21
2019-05-16T15:00:38.309Z,52.01
2019-05-16T15:03:14.764Z,52.31
2019-05-16T15:05:43.074Z,52.27
2019-05-16T15:08:20.748Z,53.52
2019-05-16T15:10:48.013Z,53.51
2019-05-16T15:13:17.504Z,54.29
2019-05-16T15:15:50.633Z,54.71
2019-05-16T15:18:18.011Z,54.76
2019-05-16T15:20:46.950Z,55.05
2019-05-16T15:23:17.256Z,55.50
2019-05-16T15:25:43.305Z,55.91
2019-05-16T15:28:10.430Z,55.09
2019-05-16T15:30:39.354Z,56.15
2019-05-16T15:33:08.624Z,56.15
2019-05-16T15:35:38.023Z,57.54
2019-05-16T15:38:07.497Z,57.88
2019-05-16T15:40:34.170Z,57.09
2019-05-16T15:43:01.341Z,56.97
2019-05-16T15:45:42.608Z,56.97
2019-05-16T15:48:08.452Z,56.33
2019-05-16T15:50:37.263Z,56.33
2019-05-16T15:53:07.754Z,56.18
2019-05-16T15:55:36.189Z,56.18
2019-05-16T15:58:03.003Z,56.23
2019-05-16T16:00:41.624Z,56.44
2019-05-16T16:03:08.718Z,56.43
2019-05-16T16:05:37.545Z,56.47
2019-05-16T16:08:06.913Z,56.53
2019-05-16T16:10:38.057Z,56.91
2019-05-16T16:13:06.758Z,57.07
2019-05-16T16:15:34.024Z,57.07
2019-05-16T16:18:01.099Z,57.19
2019-05-16T16:20:28.163Z,57.86
2019-05-16T16:22:57.275Z,58.37
2019-05-16T16:25:26.715Z,57.95
2019-05-16T16:27:53.304Z,57.95
2019-05-16T16:30:20.527Z,58.66
2019-05-16T16:32:47.613Z,58.66
2019-05-16T16:35:17.177Z,59.31
2019-05-16T16:37:43.706Z,59.99
2019-05-16T16:40:12.775Z,59.99
2019-05-16T16:42:40.027Z,59.73
2019-05-16T16:45:07.735Z,59.33
2019-05-16T16:47:37.450Z,59.54
2019-05-16T16:50:07.453Z,59.60
2019-05-16T16:52:33.076Z,59.60
2019-05-16T16:55:00.125Z,59.52
2019-05-16T16:57:27.246Z,59.55
2019-05-16T16:59:54.275Z,59.43
2019-05-16T17:02:22.416Z,59.70
2019-05-16T17:04:51.427Z,59.90
2019-05-16T17:07:18.529Z,61.26
2019-05-16T17:09:47.106Z,61.26
2019-05-16T17:12:14.316Z,61.08
2019-05-16T17:14:42.026Z,61.08
2019-05-16T17:17:09.108Z,61.05
2019-05-16T17:19:36.762Z,60.01
2019-05-16T17:22:14.586Z,60.06
2019-05-16T17:24:33.404Z,60.60
2019-05-16T17:27:00.736Z,60.75
2019-05-16T17:29:28.075Z,61.69
2019-05-16T17:32:05.334Z,61.69
2019-05-16T17:34:24.228Z,61.87
2019-05-16T17:36:51.340Z,62.09
2019-05-16T17:39:18.486Z,62.13
2019-05-16T17:41:49.267Z,62.29
2019-05-16T17:44:14.491Z,62.75
2019-05-16T17:46:41.596Z,62.90
2019-05-16T17:49:08.714Z,63.08
2019-05-16T17:51:36.753Z,63.37
2019-05-16T17:54:06.452Z,63.65
2019-05-16T17:56:33.183Z,63.83
2019-05-16T17:59:00.290Z,64.01
2019-05-16T18:01:27.535Z,63.84
2019-05-16T18:03:57.088Z,63.93
2019-05-16T18:06:23.815Z,64.13
2019-05-16T18:08:50.905Z,64.33
2019-05-16T18:11:18.002Z,64.71
2019-05-16T18:13:46.427Z,64.92
2019-05-16T18:16:13.569Z,64.94
2019-05-16T18:18:40.649Z,65.19
2019-05-16T18:21:07.765Z,65.29
2019-05-16T18:23:36.866Z,65.45
2019-05-16T18:26:04.108Z,65.64
2019-05-16T18:28:31.174Z,65.53
2019-05-16T18:30:58.443Z,65.59
2019-05-16T18:33:27.538Z,65.82
2019-05-16T18:35:54.535Z,65.99
2019-05-16T18:38:21.695Z,66.01
2019-05-16T18:40:48.827Z,65.93
2019-05-16T18:43:16.648Z,65.85
2019-05-16T18:45:43.961Z,65.90
2019-05-16T18:48:11.138Z,66.27
2019-05-16T18:50:38.408Z,66.61
2019-05-16T18:53:06.873Z,66.46
2019-05-16T18:55:36.791Z,66.50
2019-05-16T18:58:07.551Z,66.62
2019-05-16T19:00:32.931Z,66.81
2019-05-16T19:03:00.024Z,66.95
2019-05-16T19:05:29.003Z,67.18
2019-05-16T19:07:56.386Z,67.42
2019-05-16T19:10:23.643Z,67.83
2019-05-16T19:12:50.719Z,67.96
2019-05-16T19:15:19.848Z,68.03
2019-05-16T19:17:46.946Z,67.85
2019-05-16T19:20:17.220Z,68.22
2019-05-16T19:22:44.522Z,68.62
2019-05-16T19:25:12.486Z,68.73
2019-05-16T19:27:39.591Z,68.82
2019-05-16T19:30:07.385Z,68.73
2019-05-16T19:32:34.442Z,68.64
2019-05-16T19:35:01.494Z,68.80
2019-05-16T19:37:28.671Z,68.59
2019-05-16T19:39:56.947Z,68.58
2019-05-16T19:42:24.160Z,68.57
2019-05-16T19:44:51.251Z,68.71
2019-05-16T19:47:18.321Z,69.05
2019-05-16T19:49:46.414Z,69.22
2019-05-16T19:52:13.626Z,69.46
2019-05-16T19:54:40.744Z,69.77
2019-05-16T19:57:07.893Z,69.85
2019-05-16T19:59:36.676Z,69.62
2019-05-16T20:02:03.879Z,69.28
2019-05-16T20:04:31.001Z,68.89
2019-05-16T20:06:58.128Z,68.95
2019-05-16T20:09:26.879Z,68.86
2019-05-16T20:11:54.275Z,68.82
2019-05-16T20:14:21.339Z,68.75
2019-05-16T20:16:48.440Z,69.20
2019-05-16T20:19:15.523Z,69.45
2019-05-16T20:21:42.648Z,69.64
2019-05-16T20:24:09.839Z,69.75
2019-05-16T20:26:36.951Z,70.03
2019-05-16T20:29:04.281Z,70.40
2019-05-16T20:31:31.375Z,70.87
2019-05-16T20:33:58.507Z,71.12
2019-05-16T20:36:26.445Z,71.08
2019-05-16T20:38:53.579Z,71.00
2019-05-16T20:41:20.670Z,71.13
2019-05-16T20:43:47.769Z,71.39
2019-05-16T20:46:16.919Z,71.62
2019-05-16T20:48:46.378Z,71.79
2019-05-16T20:51:13.436Z,72.10
2019-05-16T20:53:40.793Z,72.27
2019-05-16T20:56:07.877Z,72.14
2019-05-16T20:58:34.994Z,72.06
2019-05-16T21:01:02.164Z,72.32
2019-05-16T21:03:29.226Z,72.34
2019-05-16T21:05:58.177Z,72.43
2019-05-16T21:08:26.580Z,72.40
2019-05-16T21:10:57.062Z,72.49
2019-05-16T21:13:24.198Z,72.62
2019-05-16T21:15:51.290Z,72.57
2019-05-16T21:18:18.375Z,72.64
2019-05-16T21:20:46.982Z,72.79
2019-05-16T21:23:19.078Z,72.84
2019-05-16T21:25:43.872Z,72.64
2019-05-16T21:28:10.974Z,72.72
2019-05-16T21:30:38.046Z,72.69
2019-05-16T21:33:05.140Z,72.70
2019-05-16T21:35:32.211Z,72.72
2019-05-16T21:37:59.282Z,72.73
2019-05-16T21:40:26.667Z,72.75
2019-05-16T21:42:58.553Z,72.83
2019-05-16T21:45:22.982Z,72.87
2019-05-16T21:47:50.066Z,72.98
2019-05-16T21:50:19.271Z,73.22
2019-05-16T21:52:46.986Z,73.14
2019-05-16T21:55:17.618Z,73.26
2019-05-16T21:57:46.649Z,73.32
2019-05-16T22:00:20.462Z,73.50
2019-05-16T22:02:47.521Z,73.53
2019-05-16T22:05:17.010Z,73.82
2019-05-16T22:07:44.192Z,73.95
2019-05-16T22:10:11.597Z,74.14
2019-05-16T22:12:38.703Z,74.28
2019-05-16T22:15:06.704Z,74.52
2019-05-16T22:17:33.895Z,74.70
2019-05-16T22:20:00.962Z,74.73
2019-05-16T22:22:30.007Z,74.74
2019-05-16T22:24:57.381Z,74.73
2019-05-16T22:27:26.773Z,74.73
2019-05-16T22:29:53.447Z,74.61
2019-05-16T22:32:20.525Z,74.62
2019-05-16T22:34:47.782Z,74.54
2019-05-16T22:37:17.034Z,74.61
2019-05-16T22:39:43.891Z,74.44
2019-05-16T22:42:10.954Z,74.50
2019-05-16T22:44:38.041Z,74.52
2019-05-16T22:47:06.708Z,74.51
2019-05-16T22:49:33.929Z,74.47
2019-05-16T22:52:01.029Z,74.38
2019-05-16T22:54:28.125Z,74.40
2019-05-16T22:56:57.185Z,74.50
2019-05-16T22:59:27.174Z,74.45
2019-05-16T23:01:56.832Z,74.69
2019-05-16T23:04:23.282Z,74.77
2019-05-16T23:06:50.362Z,74.93
2019-05-16T23:09:17.544Z,75.03
2019-05-16T23:11:45.420Z,75.06
2019-05-16T23:14:12.480Z,75.13
2019-05-16T23:16:39.576Z,75.15
2019-05-16T23:19:07.478Z,75.35
2019-05-16T23:21:36.611Z,75.35
2019-05-16T23:24:03.883Z,75.22
2019-05-16T23:26:30.977Z,75.05
2019-05-16T23:28:58.049Z,74.86
2019-05-16T23:31:27.170Z,74.88
2019-05-16T23:33:56.328Z,74.63
2019-05-16T23:36:23.412Z,74.75
2019-05-16T23:38:50.516Z,74.76
2019-05-16T23:41:17.590Z,74.63
2019-05-16T23:43:47.227Z,74.56
2019-05-16T23:46:16.526Z,74.56
2019-05-16T23:48:44.158Z,74.73
2019-05-16T23:51:11.265Z,74.71
2019-05-16T23:53:38.346Z,74.79
2019-05-16T23:56:07.373Z,74.71
2019-05-16T23:58:36.765Z,74.58
